Time;durP1;ratioP1;P1;durP2;ratioP2;P2;SDS_P1;SDS_P2;PMS_P1;PMS_P2;Temp;Humidity;BMP_temperature;BMP_pressure;BME280_temperature;BME280_humidity;BME280_pressure;Samples;Min_cycle;Max_cycle;Signal;HPM_P1;HPM_P2
2024/03/27 00:00:07;;;;;;;;;;;12.60;50.50;;;;;;5052670;28;20007;-75
2024/03/27 00:02:34;;;;;;;;;;;12.50;50.00;;;;;;5058365;28;19920;-70
2024/03/27 00:05:00;;;;;;;;;;;12.50;50.60;;;;;;5054044;28;19970;-75
2024/03/27 00:07:25;;;;;;;;;;;12.60;51.20;;;;;;5082148;28;19920;-75
2024/03/27 00:09:51;;;;;;;;;;;12.50;51.70;;;;;;5058428;28;19999;-76
2024/03/27 00:12:17;;;;;;;;;;;12.50;51.40;;;;;;5051632;28;19921;-69
2024/03/27 00:14:43;;;;;;;;;;;12.40;50.30;;;;;;5059384;28;20277;-70
2024/03/27 00:17:09;;;;;;;;;;;12.40;50.80;;;;;;5055641;28;19924;-70
2024/03/27 00:19:35;;;;;;;;;;;12.40;50.70;;;;;;5041331;28;19999;-70
2024/03/27 00:22:01;;;;;;;;;;;12.40;50.60;;;;;;5059004;28;19997;-70
2024/03/27 00:24:29;;;;;;;;;;;12.30;49.80;;;;;;5071093;28;19916;-70
2024/03/27 00:26:55;;;;;;;;;;;12.30;49.40;;;;;;5070133;28;19920;-75
2024/03/27 00:29:20;;;;;;;;;;;12.20;48.90;;;;;;5071243;28;19965;-76
2024/03/27 00:31:46;;;;;;;;;;;12.20;49.20;;;;;;5070627;28;19948;-75
2024/03/27 00:34:12;;;;;;;;;;;12.20;49.80;;;;;;5070169;28;20002;-70
2024/03/27 00:36:38;;;;;;;;;;;12.20;50.50;;;;;;5069806;28;19951;-74
2024/03/27 00:39:04;;;;;;;;;;;12.20;50.60;;;;;;5070928;28;20114;-69
2024/03/27 00:41:30;;;;;;;;;;;12.20;50.20;;;;;;5069848;28;19923;-70
2024/03/27 00:43:55;;;;;;;;;;;12.20;50.30;;;;;;5070038;28;20432;-75
2024/03/27 00:46:21;;;;;;;;;;;12.20;49.90;;;;;;5072197;28;19995;-75
2024/03/27 00:48:47;;;;;;;;;;;12.10;50.00;;;;;;5075377;28;19920;-76
2024/03/27 00:51:13;;;;;;;;;;;12.10;50.80;;;;;;5073623;28;20425;-70
2024/03/27 00:53:39;;;;;;;;;;;12.10;51.20;;;;;;5057464;28;20371;-75
2024/03/27 00:56:06;;;;;;;;;;;12.10;51.20;;;;;;5075223;28;19916;-74
2024/03/27 00:58:32;;;;;;;;;;;11.90;50.90;;;;;;5057070;28;19923;-75
2024/03/27 01:00:58;;;;;;;;;;;12.00;51.60;;;;;;5072712;28;19917;-69
2024/03/27 01:03:24;;;;;;;;;;;11.90;52.20;;;;;;5073450;28;19931;-76
2024/03/27 01:05:50;;;;;;;;;;;11.90;52.70;;;;;;5073467;28;20002;-75
2024/03/27 01:08:16;;;;;;;;;;;11.90;52.60;;;;;;5057038;28;20476;-70
2024/03/27 01:10:44;;;;;;;;;;;11.90;52.60;;;;;;5073056;28;19917;-69
2024/03/27 01:13:11;;;;;;;;;;;11.90;52.70;;;;;;5075349;28;19962;-70
2024/03/27 01:15:37;;;;;;;;;;;11.90;52.50;;;;;;5073663;28;19951;-70
2024/03/27 01:18:03;;;;;;;;;;;12.00;52.60;;;;;;5056799;28;19966;-69
2024/03/27 01:20:30;;;;;;;;;;;11.90;52.80;;;;;;5072484;28;19920;-74
2024/03/27 01:22:56;;;;;;;;;;;11.80;55.00;;;;;;5072990;28;19920;-75
2024/03/27 01:25:22;;;;;;;;;;;11.80;55.50;;;;;;5074651;28;19917;-70
2024/03/27 01:27:48;;;;;;;;;;;11.80;55.30;;;;;;5073620;28;20003;-75
2024/03/27 01:30:14;;;;;;;;;;;11.80;55.10;;;;;;5074151;28;19919;-75
2024/03/27 01:32:40;;;;;;;;;;;11.80;55.30;;;;;;5073502;28;19924;-70
2024/03/27 01:35:06;;;;;;;;;;;11.80;54.60;;;;;;5073197;28;19919;-70
2024/03/27 01:37:32;;;;;;;;;;;11.80;53.60;;;;;;5074762;28;20022;-76
2024/03/27 01:39:58;;;;;;;;;;;11.80;53.60;;;;;;5073214;28;19923;-74
2024/03/27 01:42:24;;;;;;;;;;;11.80;53.90;;;;;;5073885;28;20258;-74
2024/03/27 01:44:50;;;;;;;;;;;11.80;54.00;;;;;;5072657;28;20007;-75
2024/03/27 01:47:16;;;;;;;;;;;11.80;53.60;;;;;;5073272;28;19917;-70
2024/03/27 01:49:43;;;;;;;;;;;11.80;54.10;;;;;;5073102;28;19970;-70
2024/03/27 01:52:10;;;;;;;;;;;11.70;54.00;;;;;;5072685;28;19916;-69
2024/03/27 01:54:37;;;;;;;;;;;11.80;54.50;;;;;;5072637;28;20028;-75
2024/03/27 01:57:04;;;;;;;;;;;11.70;54.80;;;;;;5072028;28;19961;-75
2024/03/27 01:59:30;;;;;;;;;;;11.70;54.90;;;;;;5072020;28;19916;-70
2024/03/27 02:01:58;;;;;;;;;;;11.70;55.20;;;;;;5071317;28;19960;-70
2024/03/27 02:04:24;;;;;;;;;;;11.70;55.30;;;;;;5072006;28;19917;-71
2024/03/27 02:06:51;;;;;;;;;;;11.70;55.40;;;;;;5071627;28;19923;-69
2024/03/27 02:09:17;;;;;;;;;;;11.70;54.90;;;;;;5071834;28;20339;-75
2024/03/27 02:11:43;;;;;;;;;;;11.70;54.80;;;;;;5071170;28;19917;-75
2024/03/27 02:14:10;;;;;;;;;;;11.70;55.10;;;;;;5071762;28;19916;-70
2024/03/27 02:16:36;;;;;;;;;;;11.60;55.50;;;;;;5071657;28;19939;-76
2024/03/27 02:19:01;;;;;;;;;;;11.60;55.50;;;;;;5071522;28;19916;-70
2024/03/27 02:21:27;;;;;;;;;;;11.60;55.30;;;;;;5070987;28;20525;-76
2024/03/27 02:24:12;;;;;;;;;;;11.50;55.10;;;;;;5071797;28;19920;-69
2024/03/27 02:26:38;;;;;;;;;;;11.60;55.70;;;;;;5072966;28;19932;-75
2024/03/27 02:29:04;;;;;;;;;;;11.60;55.40;;;;;;5071667;28;19946;-70
2024/03/27 02:31:30;;;;;;;;;;;11.50;54.70;;;;;;5072089;28;20348;-75
2024/03/27 02:33:56;;;;;;;;;;;11.50;54.20;;;;;;5071414;28;19920;-76
2024/03/27 02:36:22;;;;;;;;;;;11.60;55.00;;;;;;5072909;28;19912;-70
2024/03/27 02:38:48;;;;;;;;;;;11.60;54.90;;;;;;5071885;28;19926;-70
2024/03/27 02:41:14;;;;;;;;;;;11.60;54.90;;;;;;5071454;28;19923;-70
2024/03/27 02:43:39;;;;;;;;;;;11.60;54.90;;;;;;5073446;28;19923;-70
2024/03/27 02:46:05;;;;;;;;;;;11.60;54.40;;;;;;5073238;28;19955;-70
2024/03/27 02:48:34;;;;;;;;;;;11.60;54.30;;;;;;5073363;28;19995;-75
2024/03/27 02:51:00;;;;;;;;;;;11.60;54.50;;;;;;5072483;28;19920;-75
2024/03/27 02:53:26;;;;;;;;;;;11.60;54.30;;;;;;5071827;28;20284;-75
2024/03/27 02:55:52;;;;;;;;;;;11.60;53.70;;;;;;5071478;28;19969;-69
2024/03/27 02:58:19;;;;;;;;;;;11.50;54.20;;;;;;5073159;28;19944;-76
2024/03/27 03:00:45;;;;;;;;;;;11.60;54.20;;;;;;5071155;28;19922;-70
2024/03/27 03:03:12;;;;;;;;;;;11.60;54.30;;;;;;5055116;28;19920;-76
2024/03/27 03:05:38;;;;;;;;;;;11.50;54.60;;;;;;5071392;28;20285;-76
2024/03/27 03:08:06;;;;;;;;;;;11.40;55.60;;;;;;5071500;28;19920;-70
2024/03/27 03:10:32;;;;;;;;;;;11.30;56.00;;;;;;5053982;28;19917;-76
2024/03/27 03:12:58;;;;;;;;;;;11.30;56.20;;;;;;5071686;28;20383;-70
2024/03/27 03:15:23;;;;;;;;;;;11.20;55.70;;;;;;5071366;28;19966;-76
2024/03/27 03:17:49;;;;;;;;;;;11.20;56.40;;;;;;5071471;28;20288;-70
2024/03/27 03:20:15;;;;;;;;;;;11.20;55.80;;;;;;5071643;28;20326;-70
2024/03/27 03:22:41;;;;;;;;;;;11.20;56.60;;;;;;5070660;28;19920;-75
2024/03/27 03:25:07;;;;;;;;;;;11.20;56.70;;;;;;5053735;28;20010;-70
2024/03/27 03:27:33;;;;;;;;;;;11.10;56.70;;;;;;5071948;28;19928;-76
2024/03/27 03:30:00;;;;;;;;;;;11.10;56.30;;;;;;5070419;28;19946;-75
2024/03/27 03:32:26;;;;;;;;;;;11.10;55.90;;;;;;5070642;28;19920;-75
2024/03/27 03:34:52;;;;;;;;;;;11.10;56.20;;;;;;5070714;28;19982;-75
2024/03/27 03:37:18;;;;;;;;;;;11.10;56.40;;;;;;5070459;28;19999;-69
2024/03/27 03:39:43;;;;;;;;;;;11.00;56.90;;;;;;5071885;28;20015;-75
2024/03/27 03:42:09;;;;;;;;;;;10.90;57.30;;;;;;5072216;28;19926;-69
2024/03/27 03:44:35;;;;;;;;;;;10.90;57.30;;;;;;5070326;28;20008;-70
2024/03/27 03:47:02;;;;;;;;;;;10.80;57.10;;;;;;5072192;28;19927;-75
2024/03/27 03:49:28;;;;;;;;;;;10.80;57.00;;;;;;5070882;28;20332;-75
2024/03/27 03:51:53;;;;;;;;;;;10.80;57.40;;;;;;5071596;28;19920;-71
2024/03/27 03:54:19;;;;;;;;;;;10.70;57.20;;;;;;5070851;28;20254;-75
2024/03/27 03:56:45;;;;;;;;;;;10.80;57.00;;;;;;5053353;28;20333;-76
2024/03/27 03:59:11;;;;;;;;;;;10.80;56.90;;;;;;5070375;28;20362;-70
2024/03/27 04:01:37;;;;;;;;;;;10.80;56.90;;;;;;5069740;28;20377;-70
2024/03/27 04:04:03;;;;;;;;;;;10.80;56.90;;;;;;5072053;28;19974;-70
2024/03/27 04:06:29;;;;;;;;;;;10.80;57.30;;;;;;5070168;28;20381;-70
2024/03/27 04:08:55;;;;;;;;;;;10.80;56.80;;;;;;5053895;28;19920;-70
2024/03/27 04:11:21;;;;;;;;;;;10.80;56.20;;;;;;5070236;28;20322;-76
2024/03/27 04:13:47;;;;;;;;;;;10.80;57.10;;;;;;5069865;28;19924;-70
2024/03/27 04:16:15;;;;;;;;;;;10.80;57.30;;;;;;5070058;28;19913;-74
2024/03/27 04:18:41;;;;;;;;;;;10.80;57.10;;;;;;5070121;28;20392;-70
2024/03/27 04:21:07;;;;;;;;;;;10.80;57.10;;;;;;5072180;28;19920;-76
2024/03/27 04:23:33;;;;;;;;;;;10.80;57.20;;;;;;5073957;28;19920;-70
2024/03/27 04:25:59;;;;;;;;;;;10.80;57.70;;;;;;5073706;28;19916;-71
2024/03/27 04:28:25;;;;;;;;;;;10.90;57.70;;;;;;5057632;28;19917;-76
2024/03/27 04:30:55;;;;;;;;;;;10.80;58.30;;;;;;5073542;28;19920;-70
2024/03/27 04:33:21;;;;;;;;;;;10.80;58.40;;;;;;5074165;28;19924;-70
2024/03/27 04:35:47;;;;;;;;;;;10.90;58.60;;;;;;5075404;28;19959;-70
2024/03/27 04:38:13;;;;;;;;;;;10.90;58.50;;;;;;5073844;28;20015;-76
2024/03/27 04:40:39;;;;;;;;;;;10.90;58.70;;;;;;5056169;28;20015;-74
2024/03/27 04:43:05;;;;;;;;;;;10.90;58.50;;;;;;5057123;28;19917;-76
2024/03/27 04:45:31;;;;;;;;;;;11.00;58.20;;;;;;5074513;28;19973;-75
2024/03/27 04:47:57;;;;;;;;;;;11.00;57.20;;;;;;5073626;28;20397;-75
2024/03/27 04:50:23;;;;;;;;;;;11.00;57.60;;;;;;5074211;28;20012;-70
2024/03/27 04:52:49;;;;;;;;;;;11.00;57.30;;;;;;5073397;28;20280;-75
2024/03/27 04:55:15;;;;;;;;;;;11.00;56.50;;;;;;5073100;28;19917;-76
2024/03/27 04:57:41;;;;;;;;;;;11.10;56.70;;;;;;5074501;28;20389;-70
2024/03/27 05:00:08;;;;;;;;;;;11.10;56.70;;;;;;5073890;28;19921;-70
2024/03/27 05:02:34;;;;;;;;;;;11.10;56.10;;;;;;5074624;28;19917;-70
2024/03/27 05:05:00;;;;;;;;;;;11.10;56.50;;;;;;5074269;28;20317;-70
2024/03/27 05:07:26;;;;;;;;;;;11.10;56.50;;;;;;5074411;28;20349;-70
2024/03/27 05:09:52;;;;;;;;;;;11.10;56.80;;;;;;5074419;28;19916;-76
2024/03/27 05:12:17;;;;;;;;;;;11.10;57.10;;;;;;5073975;28;20312;-70
2024/03/27 05:14:43;;;;;;;;;;;11.10;57.30;;;;;;5073124;28;20347;-75
2024/03/27 05:17:10;;;;;;;;;;;11.00;57.30;;;;;;5073447;28;20345;-76
2024/03/27 05:19:37;;;;;;;;;;;11.00;57.30;;;;;;5073083;28;19917;-75
2024/03/27 05:22:03;;;;;;;;;;;11.00;57.20;;;;;;5072251;28;20388;-69
2024/03/27 05:24:29;;;;;;;;;;;11.00;57.90;;;;;;5073863;28;19917;-76
2024/03/27 05:26:55;;;;;;;;;;;11.00;58.10;;;;;;5074037;28;19917;-70
2024/03/27 05:29:21;;;;;;;;;;;11.00;57.80;;;;;;5072727;28;20043;-75
2024/03/27 05:32:05;;;;;;;;;;;11.10;58.10;;;;;;5072895;28;19916;-70
2024/03/27 05:34:31;;;;;;;;;;;11.10;57.30;;;;;;5072454;28;20016;-75
2024/03/27 05:36:57;;;;;;;;;;;11.20;57.20;;;;;;5073824;28;20182;-76
2024/03/27 05:39:23;;;;;;;;;;;11.20;58.00;;;;;;5060897;28;20281;-75
2024/03/27 05:41:49;;;;;;;;;;;11.20;57.60;;;;;;5071927;28;19920;-76
2024/03/27 05:44:15;;;;;;;;;;;11.30;57.50;;;;;;5073532;28;19938;-70
2024/03/27 05:46:41;;;;;;;;;;;11.20;57.40;;;;;;5072389;28;20345;-70
2024/03/27 05:49:08;;;;;;;;;;;11.20;57.10;;;;;;5073468;28;19916;-76
2024/03/27 05:51:36;;;;;;;;;;;11.20;56.90;;;;;;5071751;28;19999;-76
2024/03/27 05:54:03;;;;;;;;;;;11.20;57.00;;;;;;5072250;28;19938;-76
2024/03/27 05:56:29;;;;;;;;;;;11.20;57.80;;;;;;5072147;28;19913;-75
2024/03/27 05:58:55;;;;;;;;;;;11.20;57.20;;;;;;5071963;28;20116;-70
2024/03/27 06:01:21;;;;;;;;;;;11.20;57.80;;;;;;5072815;28;19920;-76
2024/03/27 06:04:05;;;;;;;;;;;11.30;57.40;;;;;;5073391;28;19939;-76
2024/03/27 06:06:31;;;;;;;;;;;11.40;56.90;;;;;;5071829;28;19912;-70
2024/03/27 06:08:57;;;;;;;;;;;11.40;56.90;;;;;;5073282;28;19993;-76
2024/03/27 06:11:23;;;;;;;;;;;11.40;56.70;;;;;;5054585;28;20378;-76
2024/03/27 06:13:49;;;;;;;;;;;11.50;56.40;;;;;;5071814;28;20377;-70
2024/03/27 06:16:15;;;;;;;;;;;11.60;56.20;;;;;;5072969;28;20011;-76
2024/03/27 06:18:44;;;;;;;;;;;11.60;56.00;;;;;;5073297;28;20007;-76
2024/03/27 06:21:10;;;;;;;;;;;11.60;56.10;;;;;;5071286;28;19917;-70
2024/03/27 06:23:35;;;;;;;;;;;11.60;55.80;;;;;;5071264;28;20411;-70
2024/03/27 06:26:02;;;;;;;;;;;11.70;56.30;;;;;;5071453;28;19955;-71
2024/03/27 06:28:28;;;;;;;;;;;11.70;55.80;;;;;;5073228;28;20011;-70
2024/03/27 06:31:13;;;;;;;;;;;11.60;56.10;;;;;;5071031;28;20239;-75
2024/03/27 06:33:39;;;;;;;;;;;11.70;55.70;;;;;;5073053;28;20041;-70
2024/03/27 06:36:05;;;;;;;;;;;11.80;55.30;;;;;;5072673;28;20006;-73
2024/03/27 06:38:31;;;;;;;;;;;11.90;54.70;;;;;;5071453;28;19920;-75
2024/03/27 06:40:57;;;;;;;;;;;12.00;54.70;;;;;;5070720;28;19974;-70
2024/03/27 06:43:23;;;;;;;;;;;12.00;53.90;;;;;;5072075;28;19963;-76
2024/03/27 06:45:49;;;;;;;;;;;12.10;53.80;;;;;;5071132;28;19912;-76
2024/03/27 06:51:01;;;;;;;;;;;12.40;52.80;;;;;;5071992;28;20374;-75
2024/03/27 06:53:26;;;;;;;;;;;12.40;52.30;;;;;;5072647;28;19926;-75
2024/03/27 06:55:52;;;;;;;;;;;12.60;52.90;;;;;;5072228;28;19919;-70
2024/03/27 06:58:18;;;;;;;;;;;12.70;52.80;;;;;;5070933;28;20007;-75
2024/03/27 07:00:44;;;;;;;;;;;12.80;52.40;;;;;;5071696;28;20003;-70
2024/03/27 07:03:10;;;;;;;;;;;13.00;52.10;;;;;;5072407;28;19924;-75
2024/03/27 07:05:36;;;;;;;;;;;13.00;51.80;;;;;;5071097;28;20008;-76
2024/03/27 07:08:03;;;;;;;;;;;13.20;51.20;;;;;;5070788;28;19921;-70
2024/03/27 07:10:29;;;;;;;;;;;13.40;49.40;;;;;;5053728;28;20381;-75
2024/03/27 07:12:55;;;;;;;;;;;13.60;49.50;;;;;;5072172;28;19926;-76
2024/03/27 07:15:20;;;;;;;;;;;13.80;48.60;;;;;;5071752;28;20018;-69
2024/03/27 07:17:48;;;;;;;;;;;14.10;47.80;;;;;;5070711;28;20031;-70
2024/03/27 07:20:15;;;;;;;;;;;14.20;47.50;;;;;;5053630;28;19973;-69
2024/03/27 07:22:41;;;;;;;;;;;14.40;46.50;;;;;;5072047;28;19924;-75
2024/03/27 07:25:09;;;;;;;;;;;14.60;45.70;;;;;;5070131;28;19919;-70
2024/03/27 07:27:36;;;;;;;;;;;14.70;45.70;;;;;;5070779;28;19955;-75
2024/03/27 07:30:02;;;;;;;;;;;14.80;45.80;;;;;;5054048;28;20436;-69
2024/03/27 07:32:28;;;;;;;;;;;14.90;45.30;;;;;;5070323;28;19966;-70
2024/03/27 07:34:54;;;;;;;;;;;15.10;46.20;;;;;;5053733;28;19916;-70
2024/03/27 07:37:19;;;;;;;;;;;15.40;44.90;;;;;;5071890;28;19923;-74
2024/03/27 07:39:45;;;;;;;;;;;15.50;44.70;;;;;;5071590;28;20007;-75
2024/03/27 07:42:11;;;;;;;;;;;15.80;43.60;;;;;;5071289;28;19920;-76
2024/03/27 07:44:37;;;;;;;;;;;16.00;42.90;;;;;;5070279;28;19921;-75
2024/03/27 07:47:03;;;;;;;;;;;16.20;42.60;;;;;;5071682;28;19959;-75
2024/03/27 07:49:29;;;;;;;;;;;16.50;41.60;;;;;;5070270;28;19916;-76
2024/03/27 07:51:54;;;;;;;;;;;16.80;42.20;;;;;;5071208;28;20007;-75
2024/03/27 07:54:21;;;;;;;;;;;17.20;42.70;;;;;;5072358;28;19916;-76
2024/03/27 07:56:47;;;;;;;;;;;17.70;42.40;;;;;;5060133;28;19923;-76
2024/03/27 07:59:13;;;;;;;;;;;18.20;40.00;;;;;;5078067;28;20350;-70
2024/03/27 08:01:39;;;;;;;;;;;18.60;38.80;;;;;;5059547;28;19942;-70
2024/03/27 08:04:05;;;;;;;;;;;19.00;36.90;;;;;;5078042;28;19966;-75
2024/03/27 08:06:31;;;;;;;;;;;19.40;37.00;;;;;;5059825;28;19912;-75
2024/03/27 08:08:57;;;;;;;;;;;19.80;34.70;;;;;;5078070;28;19988;-70
2024/03/27 08:11:23;;;;;;;;;;;20.00;33.70;;;;;;5077733;28;19955;-70
2024/03/27 08:13:50;;;;;;;;;;;20.20;33.50;;;;;;5077719;28;20003;-70
2024/03/27 08:16:16;;;;;;;;;;;20.50;33.80;;;;;;5076707;28;19912;-70
2024/03/27 08:18:45;;;;;;;;;;;21.00;32.60;;;;;;5078278;28;20006;-70
2024/03/27 08:21:12;;;;;;;;;;;21.50;32.10;;;;;;5076254;28;19966;-70
2024/03/27 08:23:37;;;;;;;;;;;22.30;31.60;;;;;;5076734;28;19924;-75
2024/03/27 08:26:04;;;;;;;;;;;23.00;30.20;;;;;;5076290;28;20003;-76
2024/03/27 08:28:29;;;;;;;;;;;22.90;29.60;;;;;;5076516;28;19920;-75
2024/03/27 08:30:55;;;;;;;;;;;23.00;29.60;;;;;;5077230;28;20243;-70
2024/03/27 08:33:21;;;;;;;;;;;23.30;29.00;;;;;;5078194;28;20407;-70
2024/03/27 08:35:48;;;;;;;;;;;23.60;29.10;;;;;;5077588;28;19916;-75
2024/03/27 08:38:14;;;;;;;;;;;24.00;28.50;;;;;;5078089;28;20010;-75
2024/03/27 08:40:40;;;;;;;;;;;24.60;28.10;;;;;;5075794;28;20325;-74
2024/03/27 08:43:07;;;;;;;;;;;24.70;27.30;;;;;;5077960;28;19920;-75
2024/03/27 08:45:33;;;;;;;;;;;25.20;27.30;;;;;;5076276;28;19916;-74
2024/03/27 08:47:59;;;;;;;;;;;25.50;26.10;;;;;;5076628;28;20291;-75
2024/03/27 08:50:25;;;;;;;;;;;25.90;24.60;;;;;;5077285;28;19921;-75
2024/03/27 08:52:51;;;;;;;;;;;26.30;24.10;;;;;;5077775;28;19920;-75
2024/03/27 08:55:17;;;;;;;;;;;26.60;23.50;;;;;;5077483;28;19919;-71
2024/03/27 08:57:43;;;;;;;;;;;26.90;23.30;;;;;;5076181;28;20411;-75
2024/03/27 09:00:10;;;;;;;;;;;27.30;23.60;;;;;;5075572;28;20015;-71
2024/03/27 09:02:36;;;;;;;;;;;27.50;22.80;;;;;;5059591;28;19920;-75
2024/03/27 09:05:03;;;;;;;;;;;27.70;22.30;;;;;;5076138;28;19913;-71
2024/03/27 09:07:29;;;;;;;;;;;28.30;22.60;;;;;;5073227;28;19920;-75
2024/03/27 09:09:55;;;;;;;;;;;28.80;22.50;;;;;;5073029;28;19955;-71
2024/03/27 09:12:21;;;;;;;;;;;29.30;20.50;;;;;;5073822;28;19971;-71
2024/03/27 09:14:46;;;;;;;;;;;29.80;20.60;;;;;;5072844;28;20423;-71
2024/03/27 09:17:12;;;;;;;;;;;30.10;20.50;;;;;;5072958;28;19920;-74
2024/03/27 09:19:38;;;;;;;;;;;30.60;20.30;;;;;;5056255;28;20361;-72
2024/03/27 09:22:04;;;;;;;;;;;31.50;19.60;;;;;;5073718;28;20365;-73
2024/03/27 09:24:30;;;;;;;;;;;31.90;18.10;;;;;;5072880;28;19912;-72
2024/03/27 09:27:16;;;;;;;;;;;31.50;18.40;;;;;;5072712;28;19921;-71
2024/03/27 09:29:41;;;;;;;;;;;30.60;19.80;;;;;;5072726;28;19916;-71
2024/03/27 09:32:07;;;;;;;;;;;30.10;20.00;;;;;;5072254;28;19955;-71
2024/03/27 09:34:33;;;;;;;;;;;29.60;20.30;;;;;;5055865;28;20346;-74
2024/03/27 09:36:59;;;;;;;;;;;29.10;20.70;;;;;;5072373;28;20424;-71
2024/03/27 09:39:25;;;;;;;;;;;29.00;21.10;;;;;;5073764;28;19919;-71
2024/03/27 09:41:51;;;;;;;;;;;29.50;21.60;;;;;;5073221;28;20011;-71
2024/03/27 09:44:18;;;;;;;;;;;29.60;21.20;;;;;;5073600;28;19912;-74
2024/03/27 09:46:44;;;;;;;;;;;30.10;21.30;;;;;;5072396;28;19958;-74
2024/03/27 09:49:11;;;;;;;;;;;30.10;20.00;;;;;;5073484;28;19912;-71
2024/03/27 09:51:39;;;;;;;;;;;30.10;20.40;;;;;;5071763;28;19973;-71
2024/03/27 09:54:42;;;;;;;;;;;30.50;20.20;;;;;;5072146;28;19917;-74
2024/03/27 09:57:10;;;;;;;;;;;31.00;20.10;;;;;;5073295;28;19924;-72
2024/03/27 09:59:37;;;;;;;;;;;30.60;19.90;;;;;;5072213;28;19916;-71
2024/03/27 10:02:07;;;;;;;;;;;30.40;21.10;;;;;;5071360;28;19920;-74
2024/03/27 10:04:33;;;;;;;;;;;30.00;20.30;;;;;;5072168;28;19912;-71
2024/03/27 10:06:59;;;;;;;;;;;29.80;20.60;;;;;;5073331;28;20339;-71
2024/03/27 10:09:25;;;;;;;;;;;29.70;20.70;;;;;;5072017;28;19916;-74
2024/03/27 10:11:51;;;;;;;;;;;29.70;20.60;;;;;;5071379;28;19920;-71
2024/03/27 10:14:17;;;;;;;;;;;29.80;20.90;;;;;;5055112;28;19919;-71
2024/03/27 10:16:44;;;;;;;;;;;29.70;21.00;;;;;;5071749;28;19920;-74
2024/03/27 10:19:10;;;;;;;;;;;29.60;20.60;;;;;;5071678;28;19916;-71
2024/03/27 10:21:36;;;;;;;;;;;29.80;21.20;;;;;;5071194;28;19926;-74
2024/03/27 10:24:03;;;;;;;;;;;29.80;21.40;;;;;;5071611;28;19994;-74
2024/03/27 10:26:48;;;;;;;;;;;29.80;20.70;;;;;;5054927;28;19913;-74
2024/03/27 10:29:14;;;;;;;;;;;29.70;21.10;;;;;;5072758;28;20385;-75
2024/03/27 10:31:40;;;;;;;;;;;29.60;21.60;;;;;;5070984;28;19999;-75
2024/03/27 10:34:08;;;;;;;;;;;29.00;22.30;;;;;;5071335;28;19916;-71
2024/03/27 10:36:35;;;;;;;;;;;28.80;22.00;;;;;;5071388;28;19912;-75
2024/03/27 10:41:50;;;;;;;;;;;28.60;23.00;;;;;;5070888;28;19916;-71
2024/03/27 10:44:17;;;;;;;;;;;29.10;22.50;;;;;;5071173;28;19916;-74
2024/03/27 10:46:44;;;;;;;;;;;29.40;22.60;;;;;;5071218;28;19917;-75
2024/03/27 10:49:10;;;;;;;;;;;29.90;21.50;;;;;;5071092;28;19916;-74
2024/03/27 10:51:36;;;;;;;;;;;30.70;21.00;;;;;;5070569;28;19945;-71
2024/03/27 10:54:03;;;;;;;;;;;31.60;19.40;;;;;;5070917;28;19950;-71
2024/03/27 10:56:29;;;;;;;;;;;32.70;19.40;;;;;;5070891;28;19965;-71
2024/03/27 10:58:55;;;;;;;;;;;32.90;18.80;;;;;;5071040;28;19924;-71
2024/03/27 11:01:22;;;;;;;;;;;32.50;19.80;;;;;;5071704;28;19917;-74
2024/03/27 11:03:52;;;;;;;;;;;32.70;19.40;;;;;;5070829;28;19916;-74
2024/03/27 11:06:18;;;;;;;;;;;32.70;18.70;;;;;;5072063;28;19923;-72
2024/03/27 11:08:44;;;;;;;;;;;32.70;19.00;;;;;;5070705;28;19966;-74
2024/03/27 11:11:12;;;;;;;;;;;32.50;19.30;;;;;;5070162;28;20007;-74
2024/03/27 11:13:43;;;;;;;;;;;32.30;19.00;;;;;;5070670;28;19974;-71
2024/03/27 11:16:27;;;;;;;;;;;31.90;19.20;;;;;;5071957;28;19943;-74
2024/03/27 11:18:53;;;;;;;;;;;32.30;19.30;;;;;;5071887;28;20158;-71
2024/03/27 11:21:25;;;;;;;;;;;32.10;20.20;;;;;;5071440;28;19923;-74
2024/03/27 11:23:52;;;;;;;;;;;32.00;19.90;;;;;;5070410;28;19942;-71
2024/03/27 11:26:29;;;;;;;;;;;32.00;20.30;;;;;;5071744;28;19916;-74
2024/03/27 11:28:55;;;;;;;;;;;31.80;20.50;;;;;;5054023;28;19990;-74
2024/03/27 11:31:21;;;;;;;;;;;31.60;20.50;;;;;;5070967;28;19952;-74
2024/03/27 11:34:06;;;;;;;;;;;31.30;21.10;;;;;;5071593;28;19924;-74
2024/03/27 11:36:32;;;;;;;;;;;30.90;20.60;;;;;;5071628;28;20258;-72
2024/03/27 11:39:00;;;;;;;;;;;30.30;21.30;;;;;;5070673;28;19920;-74
2024/03/27 11:41:27;;;;;;;;;;;29.60;22.30;;;;;;5070957;28;19923;-71
2024/03/27 11:43:53;;;;;;;;;;;28.90;23.30;;;;;;5070198;28;19921;-74
2024/03/27 11:46:19;;;;;;;;;;;28.30;24.50;;;;;;5070274;28;20011;-70
2024/03/27 11:48:45;;;;;;;;;;;27.70;24.50;;;;;;5070345;28;20019;-71
2024/03/27 11:51:13;;;;;;;;;;;27.30;24.50;;;;;;5071294;28;19916;-71
2024/03/27 11:53:39;;;;;;;;;;;27.00;25.20;;;;;;5070456;28;19924;-75
2024/03/27 11:56:05;;;;;;;;;;;26.60;25.60;;;;;;5071423;28;20054;-71
2024/03/27 11:58:31;;;;;;;;;;;26.50;25.60;;;;;;5071523;28;19916;-75
2024/03/27 12:00:57;;;;;;;;;;;26.20;26.40;;;;;;5069481;28;19999;-74
2024/03/27 12:03:23;;;;;;;;;;;25.80;26.60;;;;;;5071906;28;20575;-75
2024/03/27 12:05:49;;;;;;;;;;;25.60;28.00;;;;;;5069848;28;19920;-71
2024/03/27 12:08:15;;;;;;;;;;;25.30;28.40;;;;;;5071785;28;19920;-75
2024/03/27 12:10:42;;;;;;;;;;;25.20;28.40;;;;;;5069569;28;20019;-75
2024/03/27 12:13:08;;;;;;;;;;;25.20;28.30;;;;;;5070131;28;19981;-75
2024/03/27 12:15:34;;;;;;;;;;;25.10;28.40;;;;;;5071200;28;20377;-72
2024/03/27 12:18:00;;;;;;;;;;;25.00;28.40;;;;;;5071199;28;20061;-75
2024/03/27 12:20:45;;;;;;;;;;;24.80;29.50;;;;;;5070555;28;19931;-75
2024/03/27 12:23:11;;;;;;;;;;;24.60;29.80;;;;;;5069945;28;19917;-70
2024/03/27 12:25:37;;;;;;;;;;;24.60;29.80;;;;;;5070150;28;20316;-70
2024/03/27 12:30:48;;;;;;;;;;;25.70;28.70;;;;;;5069496;28;20295;-70
2024/03/27 12:33:14;;;;;;;;;;;25.90;28.00;;;;;;5070068;28;20321;-70
2024/03/27 12:35:40;;;;;;;;;;;26.30;28.00;;;;;;5071169;28;19913;-70
2024/03/27 12:38:07;;;;;;;;;;;26.90;26.80;;;;;;5069608;28;20015;-75
2024/03/27 12:40:33;;;;;;;;;;;27.10;26.90;;;;;;5052538;28;20421;-70
2024/03/27 12:42:59;;;;;;;;;;;27.10;27.30;;;;;;5074082;28;19966;-71
2024/03/27 12:45:25;;;;;;;;;;;27.30;27.20;;;;;;5074707;28;20007;-75
2024/03/27 12:47:51;;;;;;;;;;;27.30;27.70;;;;;;5073662;28;19999;-70
2024/03/27 12:50:17;;;;;;;;;;;27.20;27.60;;;;;;5074504;28;19960;-76
2024/03/27 12:52:43;;;;;;;;;;;27.20;27.80;;;;;;5074955;28;19916;-75
2024/03/27 12:55:08;;;;;;;;;;;27.30;27.20;;;;;;5073205;28;20352;-70
2024/03/27 12:57:34;;;;;;;;;;;27.40;27.00;;;;;;5074530;28;20262;-71
2024/03/27 13:00:00;;;;;;;;;;;27.40;27.10;;;;;;5073216;28;19916;-70
2024/03/27 13:02:26;;;;;;;;;;;27.10;27.20;;;;;;5072580;28;19928;-75
2024/03/27 13:04:52;;;;;;;;;;;26.90;27.20;;;;;;5074287;28;19944;-75
2024/03/27 13:07:18;;;;;;;;;;;27.00;27.40;;;;;;5073122;28;20015;-70
2024/03/27 13:09:43;;;;;;;;;;;27.20;27.20;;;;;;5073018;28;19998;-72
2024/03/27 13:12:09;;;;;;;;;;;27.10;27.60;;;;;;5073793;28;19963;-70
2024/03/27 13:14:35;;;;;;;;;;;26.80;28.00;;;;;;5072954;28;19954;-70
2024/03/27 13:17:01;;;;;;;;;;;26.60;28.10;;;;;;5074436;28;19965;-70
2024/03/27 13:19:28;;;;;;;;;;;26.50;28.60;;;;;;5072907;28;20392;-75
2024/03/27 13:21:53;;;;;;;;;;;26.70;28.70;;;;;;5072356;28;20319;-74
2024/03/27 13:24:19;;;;;;;;;;;26.60;28.80;;;;;;5074100;28;19988;-74
2024/03/27 13:26:45;;;;;;;;;;;26.70;27.50;;;;;;5073955;28;20011;-75
2024/03/27 13:29:11;;;;;;;;;;;26.70;27.80;;;;;;5073949;28;19944;-70
2024/03/27 13:31:37;;;;;;;;;;;26.90;27.00;;;;;;5073648;28;20007;-75
2024/03/27 13:34:03;;;;;;;;;;;27.00;27.20;;;;;;5072518;28;19955;-70
2024/03/27 13:36:29;;;;;;;;;;;26.90;27.60;;;;;;5072517;28;20445;-70
2024/03/27 13:38:55;;;;;;;;;;;26.60;27.50;;;;;;5072608;28;19917;-70
2024/03/27 13:41:21;;;;;;;;;;;26.30;27.60;;;;;;5073057;28;19939;-75
2024/03/27 13:43:47;;;;;;;;;;;26.40;27.40;;;;;;5073722;28;19917;-70
2024/03/27 13:46:13;;;;;;;;;;;26.60;27.20;;;;;;5073621;28;19917;-75
2024/03/27 13:48:39;;;;;;;;;;;26.50;27.30;;;;;;5072248;28;19947;-71
2024/03/27 13:51:05;;;;;;;;;;;26.20;28.00;;;;;;5071871;28;20009;-75
2024/03/27 13:53:31;;;;;;;;;;;25.70;28.10;;;;;;5073655;28;19920;-70
2024/03/27 13:55:57;;;;;;;;;;;25.50;28.80;;;;;;5073368;28;19912;-75
2024/03/27 13:58:22;;;;;;;;;;;25.20;29.10;;;;;;5073556;28;20011;-70
2024/03/27 14:00:49;;;;;;;;;;;24.90;30.00;;;;;;5072729;28;19920;-70
2024/03/27 14:03:15;;;;;;;;;;;24.80;29.80;;;;;;5073723;28;19920;-71
2024/03/27 14:05:40;;;;;;;;;;;25.00;29.90;;;;;;5072003;28;19970;-71
2024/03/27 14:08:06;;;;;;;;;;;24.90;30.30;;;;;;5073534;28;19956;-70
2024/03/27 14:10:32;;;;;;;;;;;24.90;30.40;;;;;;5072504;28;20007;-70
2024/03/27 14:12:58;;;;;;;;;;;25.10;30.20;;;;;;5071975;28;19928;-75
2024/03/27 14:15:24;;;;;;;;;;;25.20;29.80;;;;;;5054962;28;20348;-75
2024/03/27 14:17:50;;;;;;;;;;;24.80;30.00;;;;;;5071690;28;20436;-71
2024/03/27 14:20:16;;;;;;;;;;;24.50;30.40;;;;;;5071190;28;20436;-71